sensor_id;sensor_type;location;lat;lon;timestamp;temperature;humidity
27741;DHT22;15134;48.768;9.184;2023-11-19T00:00:34;9.30;99.90
27741;DHT22;15134;48.768;9.184;2023-11-19T00:03:00;9.30;99.90
27741;DHT22;15134;48.768;9.184;2023-11-19T00:05:25;9.30;99.90
27741;DHT22;15134;48.768;9.184;2023-11-19T00:07:53;9.30;99.90
27741;DHT22;15134;48.768;9.184;2023-11-19T00:10:20;9.30;99.90
27741;DHT22;15134;48.768;9.184;2023-11-19T00:12:49;9.30;99.90
27741;DHT22;15134;48.768;9.184;2023-11-19T00:15:16;9.30;99.90
27741;DHT22;15134;48.768;9.184;2023-11-19T00:17:47;9.30;99.90
27741;DHT22;15134;48.768;9.184;2023-11-19T00:20:15;9.40;99.90
27741;DHT22;15134;48.768;9.184;2023-11-19T00:22:41;9.40;99.90
27741;DHT22;15134;48.768;9.184;2023-11-19T00:25:08;9.40;99.90
27741;DHT22;15134;48.768;9.184;2023-11-19T00:27:34;9.40;99.90
27741;DHT22;15134;48.768;9.184;2023-11-19T00:30:00;9.40;99.90
27741;DHT22;15134;48.768;9.184;2023-11-19T00:32:25;9.40;99.90
27741;DHT22;15134;48.768;9.184;2023-11-19T00:34:51;9.40;99.90
27741;DHT22;15134;48.768;9.184;2023-11-19T00:37:17;9.50;99.90
27741;DHT22;15134;48.768;9.184;2023-11-19T00:39:43;9.50;99.90
27741;DHT22;15134;48.768;9.184;2023-11-19T00:42:10;9.50;99.90
27741;DHT22;15134;48.768;9.184;2023-11-19T00:44:36;9.50;99.90
27741;DHT22;15134;48.768;9.184;2023-11-19T00:47:01;9.50;99.90
27741;DHT22;15134;48.768;9.184;2023-11-19T00:49:28;9.50;99.90
27741;DHT22;15134;48.768;9.184;2023-11-19T00:51:54;9.50;99.90
27741;DHT22;15134;48.768;9.184;2023-11-19T00:54:20;9.50;99.90
27741;DHT22;15134;48.768;9.184;2023-11-19T00:56:46;9.60;99.90
27741;DHT22;15134;48.768;9.184;2023-11-19T00:59:11;9.50;99.90
27741;DHT22;15134;48.768;9.184;2023-11-19T01:01:37;9.50;99.90
27741;DHT22;15134;48.768;9.184;2023-11-19T01:04:03;9.60;99.90
27741;DHT22;15134;48.768;9.184;2023-11-19T01:06:30;9.60;99.90
27741;DHT22;15134;48.768;9.184;2023-11-19T01:08:56;9.60;99.90
27741;DHT22;15134;48.768;9.184;2023-11-19T01:11:26;9.60;99.90
27741;DHT22;15134;48.768;9.184;2023-11-19T01:13:52;9.70;99.90
27741;DHT22;15134;48.768;9.184;2023-11-19T01:16:18;9.70;99.90
27741;DHT22;15134;48.768;9.184;2023-11-19T01:18:46;9.70;99.90
27741;DHT22;15134;48.768;9.184;2023-11-19T01:21:12;9.70;99.90
27741;DHT22;15134;48.768;9.184;2023-11-19T01:23:40;9.70;99.90
27741;DHT22;15134;48.768;9.184;2023-11-19T01:26:09;9.80;99.90
27741;DHT22;15134;48.768;9.184;2023-11-19T01:28:36;9.80;99.90
27741;DHT22;15134;48.768;9.184;2023-11-19T01:31:02;9.80;99.90
27741;DHT22;15134;48.768;9.184;2023-11-19T01:33:29;9.80;99.90
27741;DHT22;15134;48.768;9.184;2023-11-19T01:35:55;9.80;99.90
27741;DHT22;15134;48.768;9.184;2023-11-19T01:38:24;9.80;99.90
27741;DHT22;15134;48.768;9.184;2023-11-19T01:40:50;9.90;99.90
27741;DHT22;15134;48.768;9.184;2023-11-19T01:45:58;9.90;99.90
27741;DHT22;15134;48.768;9.184;2023-11-19T01:48:24;9.90;99.90
27741;DHT22;15134;48.768;9.184;2023-11-19T01:50:51;9.90;99.90
27741;DHT22;15134;48.768;9.184;2023-11-19T01:53:18;10.00;99.90
27741;DHT22;15134;48.768;9.184;2023-11-19T01:55:46;10.00;99.90
27741;DHT22;15134;48.768;9.184;2023-11-19T01:58:13;10.00;99.90
27741;DHT22;15134;48.768;9.184;2023-11-19T02:00:39;10.00;99.90
27741;DHT22;15134;48.768;9.184;2023-11-19T02:03:06;10.00;99.90
27741;DHT22;15134;48.768;9.184;2023-11-19T02:05:34;10.00;99.90
27741;DHT22;15134;48.768;9.184;2023-11-19T02:08:01;10.10;99.90
27741;DHT22;15134;48.768;9.184;2023-11-19T02:10:27;10.10;99.90
27741;DHT22;15134;48.768;9.184;2023-11-19T02:12:53;10.10;99.90
27741;DHT22;15134;48.768;9.184;2023-11-19T02:15:20;10.10;99.90
27741;DHT22;15134;48.768;9.184;2023-11-19T02:17:50;10.10;99.90
27741;DHT22;15134;48.768;9.184;2023-11-19T02:20:17;10.10;99.90
27741;DHT22;15134;48.768;9.184;2023-11-19T02:22:46;10.10;99.90
27741;DHT22;15134;48.768;9.184;2023-11-19T02:25:22;10.10;99.90
27741;DHT22;15134;48.768;9.184;2023-11-19T02:27:57;10.10;99.90
27741;DHT22;15134;48.768;9.184;2023-11-19T02:30:25;10.20;99.90
27741;DHT22;15134;48.768;9.184;2023-11-19T02:33:00;10.20;99.90
27741;DHT22;15134;48.768;9.184;2023-11-19T02:35:31;10.20;99.90
27741;DHT22;15134;48.768;9.184;2023-11-19T02:37:58;10.20;99.90
27741;DHT22;15134;48.768;9.184;2023-11-19T02:40:25;10.20;99.90
27741;DHT22;15134;48.768;9.184;2023-11-19T02:42:54;10.20;99.90
27741;DHT22;15134;48.768;9.184;2023-11-19T02:45:23;10.30;99.90
27741;DHT22;15134;48.768;9.184;2023-11-19T02:47:49;10.30;99.90
27741;DHT22;15134;48.768;9.184;2023-11-19T02:50:15;10.30;99.90
27741;DHT22;15134;48.768;9.184;2023-11-19T02:52:41;10.30;99.90
27741;DHT22;15134;48.768;9.184;2023-11-19T02:55:09;10.30;99.90
27741;DHT22;15134;48.768;9.184;2023-11-19T02:57:39;10.30;99.90
27741;DHT22;15134;48.768;9.184;2023-11-19T03:00:21;10.30;99.90
27741;DHT22;15134;48.768;9.184;2023-11-19T03:02:57;10.30;99.90
27741;DHT22;15134;48.768;9.184;2023-11-19T03:05:31;10.30;99.90
27741;DHT22;15134;48.768;9.184;2023-11-19T03:07:57;10.30;99.90
27741;DHT22;15134;48.768;9.184;2023-11-19T03:10:23;10.40;99.90
27741;DHT22;15134;48.768;9.184;2023-11-19T03:12:49;10.40;99.90
27741;DHT22;15134;48.768;9.184;2023-11-19T03:15:15;10.40;99.90
27741;DHT22;15134;48.768;9.184;2023-11-19T03:17:42;10.40;99.90
27741;DHT22;15134;48.768;9.184;2023-11-19T03:20:11;10.40;99.90
27741;DHT22;15134;48.768;9.184;2023-11-19T03:22:42;10.40;99.90
27741;DHT22;15134;48.768;9.184;2023-11-19T03:25:09;10.40;99.90
27741;DHT22;15134;48.768;9.184;2023-11-19T03:27:36;10.40;99.90
27741;DHT22;15134;48.768;9.184;2023-11-19T03:30:02;10.40;99.90
27741;DHT22;15134;48.768;9.184;2023-11-19T03:32:31;10.40;99.90
27741;DHT22;15134;48.768;9.184;2023-11-19T03:34:58;10.40;99.90
27741;DHT22;15134;48.768;9.184;2023-11-19T03:37:26;10.40;99.90
27741;DHT22;15134;48.768;9.184;2023-11-19T03:39:52;10.40;99.90
27741;DHT22;15134;48.768;9.184;2023-11-19T03:42:21;10.40;99.90
27741;DHT22;15134;48.768;9.184;2023-11-19T03:44:47;10.40;99.90
27741;DHT22;15134;48.768;9.184;2023-11-19T03:47:15;10.40;99.90
27741;DHT22;15134;48.768;9.184;2023-11-19T03:49:41;10.30;99.90
27741;DHT22;15134;48.768;9.184;2023-11-19T03:52:07;10.40;99.90
27741;DHT22;15134;48.768;9.184;2023-11-19T03:54:34;10.40;99.90
27741;DHT22;15134;48.768;9.184;2023-11-19T03:57:01;10.40;99.90
27741;DHT22;15134;48.768;9.184;2023-11-19T03:59:29;10.40;99.90
27741;DHT22;15134;48.768;9.184;2023-11-19T04:01:54;10.40;99.90
27741;DHT22;15134;48.768;9.184;2023-11-19T04:04:22;10.40;99.90
27741;DHT22;15134;48.768;9.184;2023-11-19T04:06:48;10.40;99.90
27741;DHT22;15134;48.768;9.184;2023-11-19T04:09:14;10.50;99.90
27741;DHT22;15134;48.768;9.184;2023-11-19T04:11:39;10.50;99.90
27741;DHT22;15134;48.768;9.184;2023-11-19T04:14:05;10.50;99.90
27741;DHT22;15134;48.768;9.184;2023-11-19T04:16:31;10.60;99.90
27741;DHT22;15134;48.768;9.184;2023-11-19T04:18:57;10.60;99.90
27741;DHT22;15134;48.768;9.184;2023-11-19T04:21:24;10.60;99.90
27741;DHT22;15134;48.768;9.184;2023-11-19T04:23:51;10.60;99.90
27741;DHT22;15134;48.768;9.184;2023-11-19T04:26:17;10.70;99.90
27741;DHT22;15134;48.768;9.184;2023-11-19T04:28:42;10.70;99.90
27741;DHT22;15134;48.768;9.184;2023-11-19T04:31:08;10.70;99.90
27741;DHT22;15134;48.768;9.184;2023-11-19T04:33:34;10.70;99.90
27741;DHT22;15134;48.768;9.184;2023-11-19T04:36:00;10.70;99.90
27741;DHT22;15134;48.768;9.184;2023-11-19T04:38:26;10.80;99.90
27741;DHT22;15134;48.768;9.184;2023-11-19T04:40:52;10.80;99.90
27741;DHT22;15134;48.768;9.184;2023-11-19T04:43:18;10.80;99.90
27741;DHT22;15134;48.768;9.184;2023-11-19T04:45:45;10.80;99.90
27741;DHT22;15134;48.768;9.184;2023-11-19T04:48:10;10.80;99.90
27741;DHT22;15134;48.768;9.184;2023-11-19T04:50:38;10.80;99.90
27741;DHT22;15134;48.768;9.184;2023-11-19T04:53:03;10.80;99.90
27741;DHT22;15134;48.768;9.184;2023-11-19T04:55:30;10.80;99.90
27741;DHT22;15134;48.768;9.184;2023-11-19T04:57:55;10.90;99.90
27741;DHT22;15134;48.768;9.184;2023-11-19T05:00:21;10.90;99.90
27741;DHT22;15134;48.768;9.184;2023-11-19T05:02:47;10.90;99.90
27741;DHT22;15134;48.768;9.184;2023-11-19T05:05:13;11.00;99.90
27741;DHT22;15134;48.768;9.184;2023-11-19T05:07:38;11.00;99.90
27741;DHT22;15134;48.768;9.184;2023-11-19T05:10:04;11.00;99.90
27741;DHT22;15134;48.768;9.184;2023-11-19T05:12:31;11.00;99.90
27741;DHT22;15134;48.768;9.184;2023-11-19T05:14:57;11.00;99.90
27741;DHT22;15134;48.768;9.184;2023-11-19T05:17:23;11.00;99.90
27741;DHT22;15134;48.768;9.184;2023-11-19T05:19:49;11.00;99.90
27741;DHT22;15134;48.768;9.184;2023-11-19T05:22:15;11.00;99.90
27741;DHT22;15134;48.768;9.184;2023-11-19T05:24:40;11.10;99.90
27741;DHT22;15134;48.768;9.184;2023-11-19T05:27:07;11.10;99.90
27741;DHT22;15134;48.768;9.184;2023-11-19T05:29:33;11.10;99.90
27741;DHT22;15134;48.768;9.184;2023-11-19T05:31:59;11.10;99.90
27741;DHT22;15134;48.768;9.184;2023-11-19T05:34:25;11.10;99.90
27741;DHT22;15134;48.768;9.184;2023-11-19T05:36:51;11.10;99.90
27741;DHT22;15134;48.768;9.184;2023-11-19T05:39:17;11.10;99.90
27741;DHT22;15134;48.768;9.184;2023-11-19T05:41:46;11.10;99.90
27741;DHT22;15134;48.768;9.184;2023-11-19T05:44:11;11.10;99.90
27741;DHT22;15134;48.768;9.184;2023-11-19T05:46:37;11.10;99.90
27741;DHT22;15134;48.768;9.184;2023-11-19T05:49:06;11.10;99.90
27741;DHT22;15134;48.768;9.184;2023-11-19T05:51:36;11.10;99.90
27741;DHT22;15134;48.768;9.184;2023-11-19T05:54:03;11.20;99.90
27741;DHT22;15134;48.768;9.184;2023-11-19T05:56:28;11.20;99.90
27741;DHT22;15134;48.768;9.184;2023-11-19T05:58:58;11.20;99.90
27741;DHT22;15134;48.768;9.184;2023-11-19T06:01:26;11.20;99.90
27741;DHT22;15134;48.768;9.184;2023-11-19T06:03:52;11.20;99.90
27741;DHT22;15134;48.768;9.184;2023-11-19T06:06:18;11.30;99.90
27741;DHT22;15134;48.768;9.184;2023-11-19T06:08:44;11.30;99.90
27741;DHT22;15134;48.768;9.184;2023-11-19T06:11:11;11.30;99.90
27741;DHT22;15134;48.768;9.184;2023-11-19T06:13:47;11.30;99.90
27741;DHT22;15134;48.768;9.184;2023-11-19T06:16:13;11.40;99.90
27741;DHT22;15134;48.768;9.184;2023-11-19T06:18:39;11.40;99.90
27741;DHT22;15134;48.768;9.184;2023-11-19T06:21:07;11.40;99.90
27741;DHT22;15134;48.768;9.184;2023-11-19T06:23:32;11.40;99.90
27741;DHT22;15134;48.768;9.184;2023-11-19T06:25:58;11.50;99.90
27741;DHT22;15134;48.768;9.184;2023-11-19T06:28:24;11.50;99.90
27741;DHT22;15134;48.768;9.184;2023-11-19T06:30:50;11.50;99.90
27741;DHT22;15134;48.768;9.184;2023-11-19T06:33:16;11.50;99.90
27741;DHT22;15134;48.768;9.184;2023-11-19T06:35:41;11.50;99.90
27741;DHT22;15134;48.768;9.184;2023-11-19T06:38:07;11.50;99.90
27741;DHT22;15134;48.768;9.184;2023-11-19T06:40:33;11.50;99.90
27741;DHT22;15134;48.768;9.184;2023-11-19T06:43:00;11.50;99.90
27741;DHT22;15134;48.768;9.184;2023-11-19T06:45:26;11.50;99.90
27741;DHT22;15134;48.768;9.184;2023-11-19T06:47:52;11.50;99.90
27741;DHT22;15134;48.768;9.184;2023-11-19T06:50:18;11.50;99.90
27741;DHT22;15134;48.768;9.184;2023-11-19T06:52:45;11.50;99.90
27741;DHT22;15134;48.768;9.184;2023-11-19T06:55:11;11.50;99.90
27741;DHT22;15134;48.768;9.184;2023-11-19T06:57:36;11.50;99.90
27741;DHT22;15134;48.768;9.184;2023-11-19T07:00:03;11.50;99.90
27741;DHT22;15134;48.768;9.184;2023-11-19T07:02:31;11.50;99.90
27741;DHT22;15134;48.768;9.184;2023-11-19T07:04:57;11.50;99.90
27741;DHT22;15134;48.768;9.184;2023-11-19T07:07:23;11.60;99.90
27741;DHT22;15134;48.768;9.184;2023-11-19T07:09:48;11.50;99.90
27741;DHT22;15134;48.768;9.184;2023-11-19T07:12:14;11.60;99.90
27741;DHT22;15134;48.768;9.184;2023-11-19T07:14:41;11.60;99.90
27741;DHT22;15134;48.768;9.184;2023-11-19T07:17:07;11.60;99.90
27741;DHT22;15134;48.768;9.184;2023-11-19T07:19:34;11.60;99.90
27741;DHT22;15134;48.768;9.184;2023-11-19T07:22:02;11.60;99.90
27741;DHT22;15134;48.768;9.184;2023-11-19T07:24:27;11.60;99.90
27741;DHT22;15134;48.768;9.184;2023-11-19T07:26:54;11.70;99.90
27741;DHT22;15134;48.768;9.184;2023-11-19T07:29:20;11.70;99.90
27741;DHT22;15134;48.768;9.184;2023-11-19T07:31:51;11.80;99.90
27741;DHT22;15134;48.768;9.184;2023-11-19T07:34:17;11.80;99.90
27741;DHT22;15134;48.768;9.184;2023-11-19T07:36:43;11.90;99.90
27741;DHT22;15134;48.768;9.184;2023-11-19T07:39:09;12.00;99.90
27741;DHT22;15134;48.768;9.184;2023-11-19T07:41:34;12.00;99.90
27741;DHT22;15134;48.768;9.184;2023-11-19T07:44:04;12.00;99.90
27741;DHT22;15134;48.768;9.184;2023-11-19T07:46:30;12.00;99.90
27741;DHT22;15134;48.768;9.184;2023-11-19T07:48:57;12.10;99.90
27741;DHT22;15134;48.768;9.184;2023-11-19T07:51:23;12.00;99.90
27741;DHT22;15134;48.768;9.184;2023-11-19T07:53:49;12.10;99.90
27741;DHT22;15134;48.768;9.184;2023-11-19T07:56:15;12.00;99.90
27741;DHT22;15134;48.768;9.184;2023-11-19T07:58:41;12.10;99.90
27741;DHT22;15134;48.768;9.184;2023-11-19T08:01:07;12.00;99.90
27741;DHT22;15134;48.768;9.184;2023-11-19T08:03:33;12.00;99.90
27741;DHT22;15134;48.768;9.184;2023-11-19T08:06:03;12.00;99.90
27741;DHT22;15134;48.768;9.184;2023-11-19T08:08:28;12.00;99.90
27741;DHT22;15134;48.768;9.184;2023-11-19T08:10:59;12.10;99.90
27741;DHT22;15134;48.768;9.184;2023-11-19T08:13:24;12.10;99.90
27741;DHT22;15134;48.768;9.184;2023-11-19T08:15:51;12.10;99.90
27741;DHT22;15134;48.768;9.184;2023-11-19T08:18:17;12.20;99.90
27741;DHT22;15134;48.768;9.184;2023-11-19T08:20:44;12.20;99.90
27741;DHT22;15134;48.768;9.184;2023-11-19T08:23:10;12.30;99.90
27741;DHT22;15134;48.768;9.184;2023-11-19T08:25:36;12.30;99.90
27741;DHT22;15134;48.768;9.184;2023-11-19T08:28:02;12.30;99.90
27741;DHT22;15134;48.768;9.184;2023-11-19T08:30:29;12.30;99.90
27741;DHT22;15134;48.768;9.184;2023-11-19T08:32:55;12.40;99.90
27741;DHT22;15134;48.768;9.184;2023-11-19T08:35:21;12.40;99.90
27741;DHT22;15134;48.768;9.184;2023-11-19T08:37:47;12.40;99.90
27741;DHT22;15134;48.768;9.184;2023-11-19T08:40:13;12.60;99.90
27741;DHT22;15134;48.768;9.184;2023-11-19T08:42:40;12.60;99.90
27741;DHT22;15134;48.768;9.184;2023-11-19T08:45:07;12.60;99.90
27741;DHT22;15134;48.768;9.184;2023-11-19T08:47:36;12.70;99.90
27741;DHT22;15134;48.768;9.184;2023-11-19T08:50:02;12.70;99.90
27741;DHT22;15134;48.768;9.184;2023-11-19T08:52:30;12.80;99.90
27741;DHT22;15134;48.768;9.184;2023-11-19T08:54:56;12.80;99.90
27741;DHT22;15134;48.768;9.184;2023-11-19T08:57:22;12.70;99.90
27741;DHT22;15134;48.768;9.184;2023-11-19T08:59:48;12.70;99.90
27741;DHT22;15134;48.768;9.184;2023-11-19T09:02:14;12.70;99.90
27741;DHT22;15134;48.768;9.184;2023-11-19T09:04:39;12.80;99.90
27741;DHT22;15134;48.768;9.184;2023-11-19T09:07:06;12.80;99.90
27741;DHT22;15134;48.768;9.184;2023-11-19T09:09:35;12.80;99.90
27741;DHT22;15134;48.768;9.184;2023-11-19T09:12:02;12.90;99.90
27741;DHT22;15134;48.768;9.184;2023-11-19T09:14:29;12.90;99.90
27741;DHT22;15134;48.768;9.184;2023-11-19T09:16:56;13.00;99.90
27741;DHT22;15134;48.768;9.184;2023-11-19T09:19:22;13.00;99.90
27741;DHT22;15134;48.768;9.184;2023-11-19T09:21:48;13.10;99.90
27741;DHT22;15134;48.768;9.184;2023-11-19T09:24:15;13.10;99.90
27741;DHT22;15134;48.768;9.184;2023-11-19T09:26:41;13.10;99.90
27741;DHT22;15134;48.768;9.184;2023-11-19T09:29:07;13.10;99.90
27741;DHT22;15134;48.768;9.184;2023-11-19T09:31:34;13.10;99.90
27741;DHT22;15134;48.768;9.184;2023-11-19T09:34:00;13.20;99.90
27741;DHT22;15134;48.768;9.184;2023-11-19T09:36:26;13.20;99.90
27741;DHT22;15134;48.768;9.184;2023-11-19T09:38:52;13.30;99.90
27741;DHT22;15134;48.768;9.184;2023-11-19T09:41:17;13.40;99.90
27741;DHT22;15134;48.768;9.184;2023-11-19T09:43:45;13.50;99.90
27741;DHT22;15134;48.768;9.184;2023-11-19T09:46:13;13.50;99.90
27741;DHT22;15134;48.768;9.184;2023-11-19T09:48:41;13.50;99.90
27741;DHT22;15134;48.768;9.184;2023-11-19T09:51:09;13.50;99.90
27741;DHT22;15134;48.768;9.184;2023-11-19T09:53:35;13.50;99.90
27741;DHT22;15134;48.768;9.184;2023-11-19T09:56:03;13.40;99.90
27741;DHT22;15134;48.768;9.184;2023-11-19T09:58:33;13.40;99.90
27741;DHT22;15134;48.768;9.184;2023-11-19T10:00:59;13.50;99.90
27741;DHT22;15134;48.768;9.184;2023-11-19T10:03:35;13.50;99.90
27741;DHT22;15134;48.768;9.184;2023-11-19T10:06:04;13.60;99.90
27741;DHT22;15134;48.768;9.184;2023-11-19T10:08:32;13.80;99.90
27741;DHT22;15134;48.768;9.184;2023-11-19T10:10:58;14.00;99.90
27741;DHT22;15134;48.768;9.184;2023-11-19T10:13:28;14.10;99.90
27741;DHT22;15134;48.768;9.184;2023-11-19T10:15:55;14.10;99.90
27741;DHT22;15134;48.768;9.184;2023-11-19T10:18:26;14.10;99.90
27741;DHT22;15134;48.768;9.184;2023-11-19T10:20:52;14.20;99.90
27741;DHT22;15134;48.768;9.184;2023-11-19T10:23:19;14.20;99.90
27741;DHT22;15134;48.768;9.184;2023-11-19T10:25:45;14.20;99.90
27741;DHT22;15134;48.768;9.184;2023-11-19T10:28:10;14.20;99.90
27741;DHT22;15134;48.768;9.184;2023-11-19T10:30:36;14.30;99.90
27741;DHT22;15134;48.768;9.184;2023-11-19T10:33:11;14.30;99.90
27741;DHT22;15134;48.768;9.184;2023-11-19T10:35:57;14.40;99.90
27741;DHT22;15134;48.768;9.184;2023-11-19T10:38:24;14.30;99.90
27741;DHT22;15134;48.768;9.184;2023-11-19T10:40:51;14.30;99.90
27741;DHT22;15134;48.768;9.184;2023-11-19T10:43:17;14.30;99.90
27741;DHT22;15134;48.768;9.184;2023-11-19T10:45:43;14.40;99.90
27741;DHT22;15134;48.768;9.184;2023-11-19T10:48:09;14.50;99.90
27741;DHT22;15134;48.768;9.184;2023-11-19T10:50:40;14.50;99.90
27741;DHT22;15134;48.768;9.184;2023-11-19T10:53:07;14.60;99.90
27741;DHT22;15134;48.768;9.184;2023-11-19T10:55:35;14.70;99.90
27741;DHT22;15134;48.768;9.184;2023-11-19T10:58:10;14.80;99.90
27741;DHT22;15134;48.768;9.184;2023-11-19T11:00:44;14.90;99.90
27741;DHT22;15134;48.768;9.184;2023-11-19T11:03:18;14.90;99.90
27741;DHT22;15134;48.768;9.184;2023-11-19T11:05:48;14.90;99.90
27741;DHT22;15134;48.768;9.184;2023-11-19T11:08:15;15.00;99.90
27741;DHT22;15134;48.768;9.184;2023-11-19T11:10:44;15.00;99.90
27741;DHT22;15134;48.768;9.184;2023-11-19T11:13:11;15.00;99.90
27741;DHT22;15134;48.768;9.184;2023-11-19T11:15:37;14.90;99.90
27741;DHT22;15134;48.768;9.184;2023-11-19T11:18:05;14.90;99.90
27741;DHT22;15134;48.768;9.184;2023-11-19T11:20:33;14.90;99.90
27741;DHT22;15134;48.768;9.184;2023-11-19T11:28:52;14.70;99.90
27741;DHT22;15134;48.768;9.184;2023-11-19T11:34:25;14.70;99.90
27741;DHT22;15134;48.768;9.184;2023-11-19T11:39:35;14.60;99.90
27741;DHT22;15134;48.768;9.184;2023-11-19T11:47:25;14.50;99.90
27741;DHT22;15134;48.768;9.184;2023-11-19T11:49:52;14.50;99.90
27741;DHT22;15134;48.768;9.184;2023-11-19T11:52:17;14.40;99.90
27741;DHT22;15134;48.768;9.184;2023-11-19T11:54:44;14.50;99.90
27741;DHT22;15134;48.768;9.184;2023-11-19T11:57:12;14.60;99.90
27741;DHT22;15134;48.768;9.184;2023-11-19T12:02:09;14.80;99.90
27741;DHT22;15134;48.768;9.184;2023-11-19T12:04:36;15.00;99.90
27741;DHT22;15134;48.768;9.184;2023-11-19T12:07:05;15.10;99.90
27741;DHT22;15134;48.768;9.184;2023-11-19T12:09:32;15.20;99.90
27741;DHT22;15134;48.768;9.184;2023-11-19T12:12:17;15.20;99.90
27741;DHT22;15134;48.768;9.184;2023-11-19T12:20:05;15.60;99.90
27741;DHT22;15134;48.768;9.184;2023-11-19T12:22:38;15.70;99.90
27741;DHT22;15134;48.768;9.184;2023-11-19T12:25:05;15.70;99.90
27741;DHT22;15134;48.768;9.184;2023-11-19T12:27:32;15.70;99.90
27741;DHT22;15134;48.768;9.184;2023-11-19T12:30:00;15.60;99.90
27741;DHT22;15134;48.768;9.184;2023-11-19T12:32:25;15.60;99.90
27741;DHT22;15134;48.768;9.184;2023-11-19T12:34:51;15.50;99.90
27741;DHT22;15134;48.768;9.184;2023-11-19T12:37:17;15.40;99.90
27741;DHT22;15134;48.768;9.184;2023-11-19T12:39:43;15.40;99.90
27741;DHT22;15134;48.768;9.184;2023-11-19T12:42:09;15.40;99.90
27741;DHT22;15134;48.768;9.184;2023-11-19T12:44:35;15.40;99.90
27741;DHT22;15134;48.768;9.184;2023-11-19T12:49:29;15.30;99.90
27741;DHT22;15134;48.768;9.184;2023-11-19T12:51:55;15.20;99.90
27741;DHT22;15134;48.768;9.184;2023-11-19T12:54:35;15.20;99.90
27741;DHT22;15134;48.768;9.184;2023-11-19T12:57:02;15.10;99.90
27741;DHT22;15134;48.768;9.184;2023-11-19T12:59:28;15.10;99.90
27741;DHT22;15134;48.768;9.184;2023-11-19T13:01:57;15.10;99.90
27741;DHT22;15134;48.768;9.184;2023-11-19T13:04:27;15.10;99.90
27741;DHT22;15134;48.768;9.184;2023-11-19T13:06:54;15.20;99.90
27741;DHT22;15134;48.768;9.184;2023-11-19T13:09:27;15.20;99.90
27741;DHT22;15134;48.768;9.184;2023-11-19T13:11:54;15.20;99.90
27741;DHT22;15134;48.768;9.184;2023-11-19T13:14:20;15.20;99.90
27741;DHT22;15134;48.768;9.184;2023-11-19T13:16:46;15.20;99.90
27741;DHT22;15134;48.768;9.184;2023-11-19T13:19:15;15.20;99.90
27741;DHT22;15134;48.768;9.184;2023-11-19T13:21:42;15.20;99.90
27741;DHT22;15134;48.768;9.184;2023-11-19T13:24:08;15.20;99.90
27741;DHT22;15134;48.768;9.184;2023-11-19T13:26:34;15.20;99.90
27741;DHT22;15134;48.768;9.184;2023-11-19T13:29:00;15.20;99.90
27741;DHT22;15134;48.768;9.184;2023-11-19T13:31:26;15.10;99.90
27741;DHT22;15134;48.768;9.184;2023-11-19T13:33:52;15.10;99.90
27741;DHT22;15134;48.768;9.184;2023-11-19T13:36:17;15.00;99.90
27741;DHT22;15134;48.768;9.184;2023-11-19T13:38:44;15.00;99.90
27741;DHT22;15134;48.768;9.184;2023-11-19T13:41:10;15.00;99.90
27741;DHT22;15134;48.768;9.184;2023-11-19T13:43:37;14.90;99.90
27741;DHT22;15134;48.768;9.184;2023-11-19T13:46:03;14.80;99.90
27741;DHT22;15134;48.768;9.184;2023-11-19T13:48:29;14.80;99.90
27741;DHT22;15134;48.768;9.184;2023-11-19T13:50:55;14.70;99.90
27741;DHT22;15134;48.768;9.184;2023-11-19T13:53:21;14.70;99.90
27741;DHT22;15134;48.768;9.184;2023-11-19T13:55:48;14.60;99.90
27741;DHT22;15134;48.768;9.184;2023-11-19T13:58:14;14.60;99.90
27741;DHT22;15134;48.768;9.184;2023-11-19T14:00:40;14.50;99.90
27741;DHT22;15134;48.768;9.184;2023-11-19T14:03:07;14.50;99.90
27741;DHT22;15134;48.768;9.184;2023-11-19T14:05:33;14.50;99.90
27741;DHT22;15134;48.768;9.184;2023-11-19T14:07:59;14.50;99.90
27741;DHT22;15134;48.768;9.184;2023-11-19T14:10:26;14.40;99.90
27741;DHT22;15134;48.768;9.184;2023-11-19T14:12:52;14.40;99.90
27741;DHT22;15134;48.768;9.184;2023-11-19T14:15:18;14.30;99.90
27741;DHT22;15134;48.768;9.184;2023-11-19T14:17:44;14.30;99.90
27741;DHT22;15134;48.768;9.184;2023-11-19T14:20:10;14.30;99.90
27741;DHT22;15134;48.768;9.184;2023-11-19T14:22:43;14.20;99.90
27741;DHT22;15134;48.768;9.184;2023-11-19T14:25:10;14.20;99.90
27741;DHT22;15134;48.768;9.184;2023-11-19T14:27:37;14.20;99.90
27741;DHT22;15134;48.768;9.184;2023-11-19T14:30:05;14.20;99.90
27741;DHT22;15134;48.768;9.184;2023-11-19T14:32:31;14.20;99.90
27741;DHT22;15134;48.768;9.184;2023-11-19T14:34:57;14.20;99.90
27741;DHT22;15134;48.768;9.184;2023-11-19T14:37:23;14.20;99.90
27741;DHT22;15134;48.768;9.184;2023-11-19T14:39:48;14.20;99.90
27741;DHT22;15134;48.768;9.184;2023-11-19T14:42:17;14.20;99.90
27741;DHT22;15134;48.768;9.184;2023-11-19T14:44:42;14.10;99.90
27741;DHT22;15134;48.768;9.184;2023-11-19T14:47:08;14.10;99.90
27741;DHT22;15134;48.768;9.184;2023-11-19T14:49:35;14.10;99.90
27741;DHT22;15134;48.768;9.184;2023-11-19T14:52:01;14.00;99.90
27741;DHT22;15134;48.768;9.184;2023-11-19T14:54:26;14.00;99.90
27741;DHT22;15134;48.768;9.184;2023-11-19T14:56:52;14.00;99.90
27741;DHT22;15134;48.768;9.184;2023-11-19T14:59:18;13.90;99.90
27741;DHT22;15134;48.768;9.184;2023-11-19T15:01:47;13.90;99.90
27741;DHT22;15134;48.768;9.184;2023-11-19T15:04:13;13.90;99.90
27741;DHT22;15134;48.768;9.184;2023-11-19T15:06:38;13.80;99.90
27741;DHT22;15134;48.768;9.184;2023-11-19T15:09:04;13.80;99.90
27741;DHT22;15134;48.768;9.184;2023-11-19T15:11:30;13.80;99.90
27741;DHT22;15134;48.768;9.184;2023-11-19T15:13:56;13.80;99.90
27741;DHT22;15134;48.768;9.184;2023-11-19T15:16:22;13.80;99.90
27741;DHT22;15134;48.768;9.184;2023-11-19T15:18:58;13.80;99.90
27741;DHT22;15134;48.768;9.184;2023-11-19T15:21:26;13.70;99.90
27741;DHT22;15134;48.768;9.184;2023-11-19T15:23:55;13.70;99.90
27741;DHT22;15134;48.768;9.184;2023-11-19T15:26:21;13.70;99.90
27741;DHT22;15134;48.768;9.184;2023-11-19T15:28:47;13.60;99.90
27741;DHT22;15134;48.768;9.184;2023-11-19T15:31:13;13.60;99.90
27741;DHT22;15134;48.768;9.184;2023-11-19T15:33:42;13.60;99.90
27741;DHT22;15134;48.768;9.184;2023-11-19T15:36:08;13.50;99.90
27741;DHT22;15134;48.768;9.184;2023-11-19T15:38:34;13.50;99.90
27741;DHT22;15134;48.768;9.184;2023-11-19T15:41:00;13.50;99.90
27741;DHT22;15134;48.768;9.184;2023-11-19T15:43:28;13.40;99.90
27741;DHT22;15134;48.768;9.184;2023-11-19T15:45:54;13.40;99.90
27741;DHT22;15134;48.768;9.184;2023-11-19T15:48:20;13.40;99.90
27741;DHT22;15134;48.768;9.184;2023-11-19T15:50:46;13.30;99.90
27741;DHT22;15134;48.768;9.184;2023-11-19T15:53:12;13.30;99.90
27741;DHT22;15134;48.768;9.184;2023-11-19T15:55:38;13.30;99.90
27741;DHT22;15134;48.768;9.184;2023-11-19T15:58:04;13.30;99.90
27741;DHT22;15134;48.768;9.184;2023-11-19T16:00:29;13.20;99.90